Time;durP1;ratioP1;P1;durP2;ratioP2;P2;SDS_P1;SDS_P2;PMS_P1;PMS_P2;Temp;Humidity;BMP_temperature;BMP_pressure;BME280_temperature;BME280_humidity;BME280_pressure;Samples;Min_cycle;Max_cycle;Signal;HPM_P1;HPM_P2
2022/03/26 00:00:48;;;;;;;5.50;5.00;;;;;;;18.41;37.93;101507.13;5066225;28;20058;-42
2022/03/26 00:03:14;;;;;;;6.68;4.60;;;;;;;18.41;37.82;101509.75;5065815;28;20392;-42
2022/03/26 00:05:41;;;;;;;5.57;4.85;;;;;;;18.40;37.90;101506.31;5065937;28;20081;-40
2022/03/26 00:08:07;;;;;;;6.50;4.90;;;;;;;18.39;37.89;101502.03;5066074;28;20036;-42
2022/03/26 00:10:33;;;;;;;5.40;4.57;;;;;;;18.39;38.01;101509.94;5066216;28;20070;-42
2022/03/26 00:12:59;;;;;;;5.25;4.75;;;;;;;18.39;37.91;101515.22;5047508;28;20128;-45
2022/03/26 00:15:25;;;;;;;5.55;4.85;;;;;;;18.39;37.86;101509.09;5066126;28;20127;-43
2022/03/26 00:17:51;;;;;;;5.55;4.93;;;;;;;18.39;37.96;101511.75;5065714;28;20468;-45
2022/03/26 00:20:17;;;;;;;6.40;5.13;;;;;;;18.38;37.89;101510.94;5065949;28;20136;-40
2022/03/26 00:22:42;;;;;;;5.97;5.13;;;;;;;18.38;37.86;101504.81;5065800;28;20027;-43
2022/03/26 00:25:10;;;;;;;7.93;4.72;;;;;;;18.37;37.98;101505.81;5065694;28;20048;-42
2022/03/26 00:27:36;;;;;;;5.53;4.78;;;;;;;18.37;37.92;101506.63;5049627;28;20092;-43
2022/03/26 00:30:03;;;;;;;5.60;5.05;;;;;;;18.38;37.88;101502.19;5069863;28;20020;-43
2022/03/26 00:32:30;;;;;;;5.55;4.95;;;;;;;18.37;37.92;101503.19;5069213;28;20024;-42
2022/03/26 00:34:56;;;;;;;4.85;4.38;;;;;;;18.36;37.82;101505.00;5069844;28;20036;-41
2022/03/26 00:37:21;;;;;;;5.35;4.85;;;;;;;18.36;37.95;101505.00;5069744;28;20529;-44
2022/03/26 00:39:47;;;;;;;6.38;4.90;;;;;;;18.36;38.01;101498.91;5069538;28;20028;-41
2022/03/26 00:42:12;;;;;;;5.28;4.40;;;;;;;18.36;37.90;101505.00;5069751;28;20036;-44
2022/03/26 00:44:39;;;;;;;4.95;4.20;;;;;;;18.35;37.96;101498.06;5068760;28;20027;-42
2022/03/26 00:47:06;;;;;;;6.05;5.18;;;;;;;18.37;37.98;101501.38;5069376;28;20028;-46
2022/03/26 00:49:32;;;;;;;4.63;4.15;;;;;;;18.37;37.91;101495.25;5051044;28;20253;-44
2022/03/26 00:51:57;;;;;;;5.68;4.35;;;;;;;18.37;38.05;101495.25;5069545;28;20039;-41
2022/03/26 00:54:24;;;;;;;5.13;4.20;;;;;;;18.36;38.00;101486.53;5069709;28;20361;-46
2022/03/26 00:56:50;;;;;;;5.70;4.30;;;;;;;18.37;38.08;101500.53;5069317;28;20551;-44
2022/03/26 00:59:15;;;;;;;5.38;4.47;;;;;;;18.37;38.05;101500.53;5068800;28;20128;-41
2022/03/26 01:01:41;;;;;;;6.07;4.30;;;;;;;18.38;38.17;101497.75;5069058;28;20123;-43
2022/03/26 01:04:07;;;;;;;5.35;4.45;;;;;;;18.37;38.04;101496.09;5069261;28;20028;-43
2022/03/26 01:06:34;;;;;;;4.95;4.45;;;;;;;18.36;38.23;101486.53;5068977;28;20162;-44
2022/03/26 01:09:00;;;;;;;5.78;4.65;;;;;;;18.36;38.25;101488.34;5068879;28;20028;-44
2022/03/26 01:11:26;;;;;;;4.80;4.10;;;;;;;18.36;38.28;101485.72;5068299;28;20166;-43
2022/03/26 01:13:55;;;;;;;5.65;4.55;;;;;;;18.37;38.34;101484.72;5068911;28;20108;-42
2022/03/26 01:16:23;;;;;;;4.93;4.43;;;;;;;18.38;38.26;101497.75;5069140;28;20040;-44
2022/03/26 01:18:49;;;;;;;4.68;4.20;;;;;;;18.39;38.33;101485.38;5068852;28;20032;-41
2022/03/26 01:21:15;;;;;;;4.25;3.85;;;;;;;18.39;38.21;101480.91;5068892;28;20481;-44
2022/03/26 01:23:40;;;;;;;4.88;4.40;;;;;;;18.41;38.22;101486.03;5069086;28;20399;-45
2022/03/26 01:26:06;;;;;;;6.20;4.57;;;;;;;18.40;38.29;101479.91;5068457;28;20039;-42
2022/03/26 01:28:32;;;;;;;4.30;3.85;;;;;;;18.41;38.49;101475.47;5068603;28;20020;-42
2022/03/26 01:31:00;;;;;;;4.32;3.92;;;;;;;18.42;38.43;101483.22;5068542;28;20359;-40
2022/03/26 01:33:26;;;;;;;4.38;3.97;;;;;;;18.42;38.40;101471.84;5068650;28;20058;-43
2022/03/26 01:35:51;;;;;;;3.88;3.45;;;;;;;18.43;38.40;101473.47;5067914;28;20476;-41
2022/03/26 01:38:17;;;;;;;5.03;4.30;;;;;;;18.44;38.42;101475.09;5068165;28;20086;-46
2022/03/26 01:40:42;;;;;;;4.95;4.15;;;;;;;18.44;38.45;101481.19;5068559;28;20024;-44
2022/03/26 01:43:08;;;;;;;4.13;3.67;;;;;;;18.45;38.52;101476.75;5068114;28;20088;-43
2022/03/26 01:45:34;;;;;;;4.47;3.65;;;;;;;18.44;38.45;101475.91;5068206;28;20029;-41
2022/03/26 01:47:59;;;;;;;5.50;4.40;;;;;;;18.44;38.56;101469.81;5067764;28;20063;-45
2022/03/26 01:50:27;;;;;;;5.43;4.13;;;;;;;18.43;38.50;101478.75;5068201;28;20499;-43
2022/03/26 01:52:53;;;;;;;4.88;3.63;;;;;;;18.43;38.59;101476.13;5068218;28;20177;-43
2022/03/26 01:55:19;;;;;;;4.22;3.83;;;;;;;18.42;38.48;101472.66;5067741;28;20050;-44
2022/03/26 01:57:44;;;;;;;4.78;4.25;;;;;;;18.43;38.50;101478.75;5049228;28;20252;-41
2022/03/26 02:00:11;;;;;;;5.65;4.15;;;;;;;18.43;38.58;101481.41;5068494;28;20419;-43
2022/03/26 02:02:43;;;;;;;4.22;3.67;;;;;;;18.41;38.43;101470.19;5067791;28;20047;-45
2022/03/26 02:05:12;;;;;;;5.90;4.03;;;;;;;18.41;38.43;101471.00;5068100;28;20031;-44
2022/03/26 02:07:43;;;;;;;3.80;3.50;;;;;;;18.41;38.37;101470.19;5067862;28;20036;-40
2022/03/26 02:12:47;;;;;;;4.43;3.53;;;;;;;18.39;38.59;101470.34;5165135;22;20550;-44
2022/03/26 02:15:13;;;;;;;4.43;3.42;;;;;;;18.41;38.67;101470.19;5047987;28;20291;-43
2022/03/26 02:17:39;;;;;;;3.65;3.33;;;;;;;18.41;38.59;101473.66;5048314;28;20048;-40
2022/03/26 02:20:10;;;;;;;4.45;4.05;;;;;;;18.39;38.71;101462.44;5048419;28;20075;-40
2022/03/26 02:22:37;;;;;;;4.18;3.78;;;;;;;18.41;38.61;101467.56;5048120;28;20032;-42
2022/03/26 02:25:03;;;;;;;4.45;4.05;;;;;;;18.41;38.75;101465.72;5048243;28;20120;-45
2022/03/26 02:27:30;;;;;;;4.35;3.95;;;;;;;18.40;38.59;101466.72;5047880;28;20033;-40
2022/03/26 02:29:55;;;;;;;5.15;3.92;;;;;;;18.40;38.61;101472.00;5047712;28;20032;-43
2022/03/26 02:32:23;;;;;;;3.97;3.58;;;;;;;18.39;38.54;101470.34;5048101;28;20045;-43
2022/03/26 02:34:49;;;;;;;5.65;4.18;;;;;;;18.40;38.54;101473.81;5047796;28;20484;-44
2022/03/26 02:37:16;;;;;;;4.18;3.78;;;;;;;18.38;38.39;101460.81;5047849;28;20041;-44
2022/03/26 02:39:42;;;;;;;4.40;4.00;;;;;;;18.39;38.38;101462.44;5046305;28;20120;-40
2022/03/26 02:42:08;;;;;;;5.20;4.15;;;;;;;18.38;38.20;101467.88;5047740;28;20067;-43
2022/03/26 02:44:34;;;;;;;4.93;4.43;;;;;;;18.37;38.42;101467.06;5047841;28;20025;-46
2022/03/26 02:47:00;;;;;;;5.15;4.65;;;;;;;18.38;38.30;101467.88;5047394;28;20029;-42
2022/03/26 02:49:26;;;;;;;4.78;4.28;;;;;;;18.38;38.43;101459.97;5046537;28;20057;-43
2022/03/26 02:51:51;;;;;;;4.88;4.45;;;;;;;18.37;38.16;101458.31;5047656;28;20116;-42
2022/03/26 02:54:19;;;;;;;4.25;3.85;;;;;;;18.36;38.23;101467.25;5047287;28;20025;-40
2022/03/26 02:56:49;;;;;;;5.05;4.30;;;;;;;18.35;38.23;101462.94;5047405;28;20114;-43
2022/03/26 02:59:16;;;;;;;5.07;4.05;;;;;;;18.36;38.30;101465.44;5047181;28;20529;-41
2022/03/26 03:01:42;;;;;;;4.35;3.95;;;;;;;18.36;38.38;101467.25;5045842;28;20045;-40
2022/03/26 03:04:08;;;;;;;5.55;3.88;;;;;;;18.35;38.37;101473.50;5047142;28;20032;-44
2022/03/26 03:06:34;;;;;;;4.25;3.60;;;;;;;18.35;38.41;101470.88;5047111;28;20044;-46
2022/03/26 03:09:01;;;;;;;4.18;3.78;;;;;;;18.36;38.56;101467.25;5045729;28;20431;-41
2022/03/26 03:11:27;;;;;;;4.13;3.72;;;;;;;18.35;38.45;101476.97;5046683;28;20427;-44
2022/03/26 03:13:52;;;;;;;5.05;3.30;;;;;;;18.36;38.71;101475.97;5046954;28;20434;-41
2022/03/26 03:16:17;;;;;;;4.15;3.67;;;;;;;18.36;38.63;101475.16;5046932;28;20029;-47
2022/03/26 03:18:43;;;;;;;3.38;3.05;;;;;;;18.36;38.68;101475.16;5047069;28;20460;-43
2022/03/26 03:21:09;;;;;;;4.43;4.03;;;;;;;18.36;38.67;101478.63;5046749;28;20102;-44
2022/03/26 03:23:35;;;;;;;3.63;3.30;;;;;;;18.37;38.77;101471.53;5045324;28;20033;-43
2022/03/26 03:26:01;;;;;;;4.15;3.75;;;;;;;18.36;38.77;101467.25;5046498;28;20028;-42
2022/03/26 03:28:26;;;;;;;3.40;3.10;;;;;;;18.36;38.82;101470.69;5047038;28;20203;-45
2022/03/26 03:30:52;;;;;;;2.95;2.72;;;;;;;18.36;38.85;101467.25;5047057;28;20439;-43
2022/03/26 03:33:18;;;;;;;3.88;3.58;;;;;;;18.36;39.03;101472.50;5046725;28;20510;-48
2022/03/26 03:35:43;;;;;;;4.50;3.85;;;;;;;18.35;38.87;101471.69;5047208;28;20098;-44
2022/03/26 03:38:09;;;;;;;4.18;3.78;;;;;;;18.34;38.98;101464.78;5046642;28;20087;-42
2022/03/26 03:40:34;;;;;;;3.80;3.50;;;;;;;18.35;39.00;101470.88;5046954;28;20116;-41
2022/03/26 03:43:00;;;;;;;3.92;3.42;;;;;;;18.35;38.94;101471.69;5046529;28;20205;-43
2022/03/26 03:45:26;;;;;;;3.75;3.33;;;;;;;18.35;39.09;101470.88;5046744;28;20055;-40
2022/03/26 03:47:52;;;;;;;3.60;3.30;;;;;;;18.34;38.96;101475.31;5046617;28;20075;-43
2022/03/26 03:50:17;;;;;;;3.30;3.00;;;;;;;18.34;39.04;101475.31;5046592;28;20025;-45
2022/03/26 03:52:43;;;;;;;3.53;3.22;;;;;;;18.35;39.17;101476.16;5046780;28;20056;-41
2022/03/26 03:55:08;;;;;;;3.72;3.35;;;;;;;18.36;39.07;101477.78;5047020;28;20028;-45
2022/03/26 03:57:34;;;;;;;3.17;2.75;;;;;;;18.37;39.06;101487.34;5046354;28;20155;-43
2022/03/26 04:00:01;;;;;;;3.50;3.17;;;;;;;18.37;39.13;101477.63;5046614;28;20029;-43
2022/03/26 04:02:27;;;;;;;3.83;3.45;;;;;;;18.38;39.01;101483.72;5048424;28;20028;-43
2022/03/26 04:04:52;;;;;;;3.58;3.00;;;;;;;18.38;39.12;101475.81;5050806;28;20043;-43
2022/03/26 04:07:18;;;;;;;4.28;3.55;;;;;;;18.38;39.16;101473.16;5050361;28;20525;-43
2022/03/26 04:09:43;;;;;;;4.10;3.70;;;;;;;18.39;39.29;101480.09;5050530;28;20044;-45
2022/03/26 04:12:09;;;;;;;3.88;3.35;;;;;;;18.39;39.24;101480.91;5050152;28;20049;-43
2022/03/26 04:14:38;;;;;;;4.10;3.40;;;;;;;18.41;39.20;101483.38;5050467;28;20033;-47
2022/03/26 04:17:05;;;;;;;3.50;3.00;;;;;;;18.41;39.22;101476.28;5050152;28;20571;-44
2022/03/26 04:19:30;;;;;;;3.55;3.20;;;;;;;18.42;39.21;101479.75;5048643;28;20025;-43
2022/03/26 04:21:56;;;;;;;3.10;2.83;;;;;;;18.43;39.18;101482.19;5050333;28;20047;-43
2022/03/26 04:24:22;;;;;;;3.33;3.00;;;;;;;18.42;39.21;101482.38;5050240;28;20029;-43
2022/03/26 04:26:47;;;;;;;3.55;3.20;;;;;;;18.41;39.33;101486.84;5049977;28;20036;-43
2022/03/26 04:29:13;;;;;;;4.05;3.30;;;;;;;18.41;39.31;101486.03;5050324;28;20086;-45
2022/03/26 04:31:38;;;;;;;3.65;3.08;;;;;;;18.39;39.39;101483.56;5050250;28;20256;-42
2022/03/26 04:34:04;;;;;;;3.08;2.78;;;;;;;18.39;39.39;101486.19;5050273;28;20029;-42
2022/03/26 04:36:30;;;;;;;3.33;2.83;;;;;;;18.41;39.44;101488.66;5049967;28;20043;-46
2022/03/26 04:38:57;;;;;;;3.25;2.95;;;;;;;18.41;39.34;101491.28;5050176;28;20036;-42
2022/03/26 04:41:22;;;;;;;3.35;3.05;;;;;;;18.41;39.50;101491.28;5050115;28;20048;-42
2022/03/26 04:43:48;;;;;;;4.13;3.53;;;;;;;18.39;39.52;101499.38;5050080;28;20449;-44
2022/03/26 04:46:13;;;;;;;3.90;3.38;;;;;;;18.39;39.47;101502.03;5049870;28;20304;-44
2022/03/26 04:48:39;;;;;;;3.83;3.45;;;;;;;18.39;39.61;101501.19;5049738;28;20791;-43
2022/03/26 04:51:05;;;;;;;3.42;3.13;;;;;;;18.39;39.25;101507.28;5048337;28;20055;-40
2022/03/26 04:53:30;;;;;;;3.03;2.67;;;;;;;18.38;39.59;101504.81;5049612;28;20036;-43
2022/03/26 04:55:56;;;;;;;3.35;3.05;;;;;;;18.38;39.44;101510.94;5049615;28;20021;-43
2022/03/26 04:58:21;;;;;;;3.33;3.03;;;;;;;18.38;39.60;101512.75;5049705;28;20520;-43
2022/03/26 05:00:47;;;;;;;3.67;3.33;;;;;;;18.37;39.60;101521.66;5049740;28;20029;-41
2022/03/26 05:03:12;;;;;;;3.67;3.05;;;;;;;18.37;39.63;101521.66;5049688;28;20029;-40
2022/03/26 05:05:38;;;;;;;3.75;2.92;;;;;;;18.36;39.40;101522.63;5049285;28;20029;-44
2022/03/26 05:08:03;;;;;;;3.42;3.13;;;;;;;18.36;39.54;101522.63;5049319;28;20021;-44
2022/03/26 05:10:29;;;;;;;3.67;3.30;;;;;;;18.36;39.61;101522.63;5048963;28;20029;-39
2022/03/26 05:12:56;;;;;;;3.15;2.88;;;;;;;18.35;39.71;101526.28;5048202;28;20076;-45
2022/03/26 05:15:23;;;;;;;3.13;2.80;;;;;;;18.34;39.53;101511.44;5049346;28;20029;-43
2022/03/26 05:17:53;;;;;;;3.40;3.10;;;;;;;18.33;39.64;101521.16;5049023;28;20502;-42
2022/03/26 05:20:20;;;;;;;3.50;3.20;;;;;;;18.34;39.63;101532.53;5049112;28;20029;-44
2022/03/26 05:22:47;;;;;;;4.57;3.38;;;;;;;18.34;39.63;101535.19;5047462;28;20029;-41
2022/03/26 05:25:15;;;;;;;5.55;3.20;;;;;;;18.32;39.71;101530.06;5049047;28;20175;-43
2022/03/26 05:27:45;;;;;;;4.07;3.65;;;;;;;18.34;39.64;101535.19;5048847;28;20159;-43
2022/03/26 05:30:10;;;;;;;3.00;2.75;;;;;;;18.34;39.64;101537.81;5047315;28;20052;-43
2022/03/26 05:32:36;;;;;;;3.70;3.38;;;;;;;18.34;39.58;101543.09;5048760;28;20535;-42
2022/03/26 05:35:03;;;;;;;3.50;3.10;;;;;;;18.33;39.41;101539.63;5049101;28;20033;-40
2022/03/26 05:37:30;;;;;;;3.13;2.83;;;;;;;18.33;39.57;101537.00;5047231;28;20269;-43
2022/03/26 05:39:55;;;;;;;3.45;2.95;;;;;;;18.34;39.71;101541.28;5048670;28;20021;-44
2022/03/26 05:42:21;;;;;;;4.15;2.83;;;;;;;18.34;39.66;101543.09;5047260;28;20036;-45
2022/03/26 05:44:46;;;;;;;3.15;2.72;;;;;;;18.35;39.81;101547.38;5048680;28;20128;-40
2022/03/26 05:47:11;;;;;;;3.05;2.85;;;;;;;18.35;39.77;101544.75;5048890;28;20029;-42
2022/03/26 05:49:37;;;;;;;3.85;3.47;;;;;;;18.34;39.77;101537.81;5048709;28;20032;-40
2022/03/26 05:52:03;;;;;;;2.60;2.40;;;;;;;18.34;39.80;101548.38;5048552;28;20048;-41
2022/03/26 05:54:28;;;;;;;3.10;2.80;;;;;;;18.35;39.86;101544.75;5048514;28;20025;-43
2022/03/26 05:56:54;;;;;;;3.85;3.40;;;;;;;18.34;39.86;101554.47;5048835;28;20102;-41
2022/03/26 05:59:23;;;;;;;3.50;2.97;;;;;;;18.34;39.72;101553.66;5048697;28;20072;-42
2022/03/26 06:01:50;;;;;;;3.03;2.72;;;;;;;18.33;39.75;101555.47;5048617;28;20037;-43
2022/03/26 06:04:16;;;;;;;3.67;3.38;;;;;;;18.32;39.66;101556.44;5048315;28;20499;-41
2022/03/26 06:06:43;;;;;;;3.20;2.83;;;;;;;18.33;39.72;101563.38;5048341;28;20037;-43
2022/03/26 06:09:09;;;;;;;3.33;3.03;;;;;;;18.32;39.75;101563.53;5048476;28;20408;-39
2022/03/26 06:11:34;;;;;;;3.80;3.03;;;;;;;18.32;39.59;101568.81;5048038;28;20128;-43
2022/03/26 06:14:00;;;;;;;3.53;3.17;;;;;;;18.31;39.66;101569.81;5048236;28;20107;-40
2022/03/26 06:16:26;;;;;;;3.35;2.95;;;;;;;18.31;39.61;101575.09;5048108;28;20036;-41
2022/03/26 06:18:51;;;;;;;2.97;2.60;;;;;;;18.31;39.74;101578.53;5048048;28;20025;-40
2022/03/26 06:21:17;;;;;;;3.17;2.88;;;;;;;18.31;39.75;101580.38;5047970;28;20079;-40
2022/03/26 06:23:43;;;;;;;3.92;3.50;;;;;;;18.31;39.71;101593.56;5047602;28;20091;-42
2022/03/26 06:26:08;;;;;;;4.65;3.15;;;;;;;18.31;39.72;101585.63;5047079;28;20102;-43
2022/03/26 06:28:35;;;;;;;3.40;3.10;;;;;;;18.32;39.63;101597.84;5046513;28;20033;-42
2022/03/26 06:31:00;;;;;;;3.47;3.03;;;;;;;18.32;39.79;101597.84;5046399;28;20476;-43
2022/03/26 06:33:26;;;;;;;4.57;3.75;;;;;;;18.33;39.72;101596.84;5047706;28;20090;-41
2022/03/26 06:35:51;;;;;;;2.90;2.67;;;;;;;18.33;39.69;101592.38;5047400;28;20029;-43
2022/03/26 06:38:17;;;;;;;3.78;3.20;;;;;;;18.35;39.56;101597.50;5047542;28;20468;-43
2022/03/26 06:40:42;;;;;;;3.97;3.22;;;;;;;18.35;39.55;101603.59;5047841;28;20063;-45
2022/03/26 06:43:08;;;;;;;4.78;2.90;;;;;;;18.35;39.49;101598.31;5047605;28;20095;-42
2022/03/26 06:45:35;;;;;;;3.17;2.88;;;;;;;18.37;39.62;101600.78;5047592;28;20028;-40
2022/03/26 06:48:01;;;;;;;3.90;2.95;;;;;;;18.38;39.59;101594.53;5047637;28;20052;-39
2022/03/26 06:50:27;;;;;;;3.40;2.80;;;;;;;18.39;39.56;101601.47;5047703;28;20063;-43
2022/03/26 06:52:54;;;;;;;2.88;2.65;;;;;;;18.40;39.50;101603.94;5047852;28;20032;-42
2022/03/26 06:55:20;;;;;;;3.30;3.00;;;;;;;18.41;39.63;101594.19;5045930;28;20064;-41
2022/03/26 06:57:46;;;;;;;4.05;2.88;;;;;;;18.39;39.59;101602.28;5047328;28;20029;-42
2022/03/26 07:00:13;;;;;;;3.05;2.45;;;;;;;18.41;39.65;101599.47;5047500;28;20025;-41
2022/03/26 07:02:39;;;;;;;3.53;2.95;;;;;;;18.40;39.68;101605.75;5047205;28;20040;-44
2022/03/26 07:05:05;;;;;;;2.60;2.30;;;;;;;18.40;39.72;101609.19;5047115;28;20021;-43
2022/03/26 07:07:30;;;;;;;2.58;2.38;;;;;;;18.39;39.68;101609.38;5047541;28;20082;-41
2022/03/26 07:09:56;;;;;;;3.45;2.70;;;;;;;18.39;39.53;101609.38;5047045;28;20028;-42
2022/03/26 07:12:22;;;;;;;3.63;3.17;;;;;;;18.39;39.55;101610.19;5046988;28;20451;-41
2022/03/26 07:14:47;;;;;;;4.25;3.00;;;;;;;18.38;39.55;101611.19;5047459;28;20112;-43
2022/03/26 07:17:16;;;;;;;3.70;3.40;;;;;;;18.38;39.35;101616.47;5047031;28;20033;-41
2022/03/26 07:19:41;;;;;;;3.75;2.78;;;;;;;18.36;39.29;101621.09;5045459;28;20029;-44
2022/03/26 07:22:07;;;;;;;4.32;3.35;;;;;;;18.37;39.33;101620.09;5046755;28;20035;-44
2022/03/26 07:24:32;;;;;;;3.83;3.30;;;;;;;18.36;39.33;101620.25;5046854;28;20048;-43
2022/03/26 07:26:58;;;;;;;4.03;2.92;;;;;;;18.36;39.29;101620.25;5046822;28;20029;-41
2022/03/26 07:29:23;;;;;;;3.55;3.17;;;;;;;18.35;39.19;101616.78;5046875;28;20108;-44
2022/03/26 07:31:49;;;;;;;3.42;3.20;;;;;;;18.35;39.39;101624.72;5047002;28;20121;-43
2022/03/26 07:34:16;;;;;;;4.28;3.63;;;;;;;18.34;39.08;101619.59;5046977;28;20033;-42
2022/03/26 07:36:42;;;;;;;3.50;3.13;;;;;;;18.34;38.98;101617.78;5044941;28;20029;-46
2022/03/26 07:39:07;;;;;;;4.95;3.58;;;;;;;18.35;39.00;101623.88;5046736;28;20529;-43
2022/03/26 07:41:33;;;;;;;3.78;2.92;;;;;;;18.33;39.10;101618.78;5046617;28;20025;-45
2022/03/26 07:43:58;;;;;;;5.72;3.40;;;;;;;18.34;38.87;101619.59;5046673;28;20327;-47
2022/03/26 07:46:25;;;;;;;4.10;3.65;;;;;;;18.33;38.71;101620.59;5046738;28;20147;-47
2022/03/26 07:48:51;;;;;;;4.90;3.75;;;;;;;18.33;38.67;101621.41;5046603;28;20115;-49
2022/03/26 07:51:16;;;;;;;4.82;3.67;;;;;;;18.32;38.68;101625.03;5046908;28;20057;-42
2022/03/26 07:53:42;;;;;;;4.20;3.53;;;;;;;18.33;38.56;101620.59;5046760;28;20025;-46
2022/03/26 07:56:08;;;;;;;4.05;3.40;;;;;;;18.33;38.46;101628.50;5046659;28;20090;-44
2022/03/26 07:58:33;;;;;;;4.07;3.60;;;;;;;18.33;38.31;101628.50;5046700;28;20032;-44
2022/03/26 08:00:59;;;;;;;3.90;3.20;;;;;;;18.34;38.33;101627.50;5046658;28;20029;-46
2022/03/26 08:03:24;;;;;;;3.88;3.17;;;;;;;18.34;38.34;101630.16;5047138;28;20538;-42
2022/03/26 08:05:50;;;;;;;4.07;3.70;;;;;;;18.34;38.25;101638.88;5046749;28;20039;-43
2022/03/26 08:08:16;;;;;;;3.90;3.47;;;;;;;18.34;38.28;101635.44;5046850;28;20376;-42
2022/03/26 08:10:41;;;;;;;5.22;3.20;;;;;;;18.34;38.23;101632.78;5047137;28;20479;-39
2022/03/26 08:13:08;;;;;;;4.35;3.17;;;;;;;18.34;38.24;101633.63;5046367;28;20140;-43
2022/03/26 08:15:33;;;;;;;3.90;3.30;;;;;;;18.34;38.36;101638.06;5046496;28;20407;-43
2022/03/26 08:18:02;;;;;;;4.15;3.30;;;;;;;18.34;38.40;101630.16;5046350;28;20032;-41
2022/03/26 08:20:28;;;;;;;4.63;3.30;;;;;;;18.33;38.46;101631.16;5046326;28;20103;-41
2022/03/26 08:22:53;;;;;;;3.42;3.10;;;;;;;18.33;38.58;101639.06;5044751;28;20041;-43
2022/03/26 08:26:19;;;;;;;3.25;2.85;;;;;;;18.33;38.54;101634.59;5046281;28;20029;-45
2022/03/26 08:28:09;;;;;;;3.10;2.78;;;;;;;18.31;38.65;101631.31;5046122;28;20506;-40
2022/03/26 08:30:35;;;;;;;4.75;3.35;;;;;;;18.31;38.69;101631.31;5046447;28;20049;-41
2022/03/26 08:33:02;;;;;;;3.80;3.08;;;;;;;18.31;38.58;101627.84;5046215;28;20041;-45
2022/03/26 08:35:35;;;;;;;3.30;3.00;;;;;;;18.30;38.63;101626.19;5046225;28;20087;-43
2022/03/26 08:38:01;;;;;;;3.20;2.75;;;;;;;18.31;38.85;101622.56;5045998;28;20032;-43
2022/03/26 08:40:27;;;;;;;3.67;3.35;;;;;;;18.31;38.71;101625.22;5046303;28;20254;-40
2022/03/26 08:42:52;;;;;;;4.65;3.50;;;;;;;18.30;38.58;101626.19;5045776;28;20366;-40
2022/03/26 08:45:19;;;;;;;4.82;3.47;;;;;;;18.30;38.64;101624.38;5045823;28;20036;-43
2022/03/26 08:47:45;;;;;;;5.85;3.42;;;;;;;18.30;38.58;101620.91;5046695;28;20032;-43
2022/03/26 08:50:11;;;;;;;3.40;3.10;;;;;;;18.30;38.64;101620.91;5049833;28;20029;-43
2022/03/26 08:52:37;;;;;;;3.28;2.95;;;;;;;18.29;38.63;101622.75;5049786;28;20195;-46
2022/03/26 08:55:04;;;;;;;3.17;2.88;;;;;;;18.29;38.60;101621.91;5049513;28;20074;-41
2022/03/26 08:57:29;;;;;;;4.53;2.95;;;;;;;18.29;38.54;101616.63;5049410;28;20543;-41
2022/03/26 08:59:55;;;;;;;3.25;2.97;;;;;;;18.29;38.56;101617.47;5049312;28;20036;-43
2022/03/26 09:02:20;;;;;;;3.50;2.75;;;;;;;18.29;38.47;101617.47;5049426;28;20035;-47
2022/03/26 09:04:46;;;;;;;3.20;2.75;;;;;;;18.32;38.56;101616.31;5049366;28;20136;-43
2022/03/26 09:07:11;;;;;;;4.25;3.20;;;;;;;18.32;38.49;101613.66;5049255;28;20468;-41
2022/03/26 09:09:37;;;;;;;3.85;3.03;;;;;;;18.34;38.46;101614.31;5049410;28;20036;-41
2022/03/26 09:12:03;;;;;;;3.55;2.40;;;;;;;18.35;38.44;101614.16;5049157;28;20095;-41
2022/03/26 09:14:29;;;;;;;3.50;2.88;;;;;;;18.35;38.44;101613.34;5049820;28;20037;-41
2022/03/26 09:16:54;;;;;;;3.10;2.63;;;;;;;18.36;38.39;101617.63;5049471;28;20452;-41
2022/03/26 09:19:20;;;;;;;3.45;3.08;;;;;;;18.37;38.35;101616.63;5049216;28;20507;-48
2022/03/26 09:21:46;;;;;;;3.25;2.95;;;;;;;18.37;38.38;101614.00;5049263;28;20033;-41
2022/03/26 09:24:13;;;;;;;5.57;3.45;;;;;;;18.38;38.39;101610.34;5047620;28;20033;-42
2022/03/26 09:26:39;;;;;;;3.58;2.67;;;;;;;18.38;38.37;101605.91;5047310;28;20029;-45
2022/03/26 09:29:05;;;;;;;2.95;2.47;;;;;;;18.40;38.41;101605.75;5049155;28;20044;-43
2022/03/26 09:31:31;;;;;;;4.03;3.08;;;;;;;18.39;38.41;101604.09;5048937;28;20025;-40
2022/03/26 09:33:56;;;;;;;3.30;3.00;;;;;;;18.39;38.53;101609.38;5049098;28;20079;-42
2022/03/26 09:36:22;;;;;;;3.55;3.00;;;;;;;18.39;38.58;101606.72;5048814;28;20025;-43
2022/03/26 09:38:47;;;;;;;4.88;3.35;;;;;;;18.39;38.63;101609.38;5048816;28;20091;-43
2022/03/26 09:41:14;;;;;;;4.35;2.67;;;;;;;18.38;38.57;101605.09;5048445;28;20128;-45
2022/03/26 09:43:40;;;;;;;3.38;2.83;;;;;;;18.38;38.58;101603.28;5048718;28;20024;-41
2022/03/26 09:46:07;;;;;;;3.95;2.70;;;;;;;18.38;38.60;101603.28;5048404;28;20541;-44
2022/03/26 09:48:32;;;;;;;3.10;2.35;;;;;;;18.37;38.73;101601.63;5048375;28;20036;-47
2022/03/26 09:51:01;;;;;;;4.60;2.75;;;;;;;18.36;38.69;101592.06;5048577;28;20032;-40
2022/03/26 09:53:26;;;;;;;3.60;2.67;;;;;;;18.37;38.75;101590.25;5048498;28;20045;-43
2022/03/26 09:55:52;;;;;;;4.10;2.88;;;;;;;18.37;38.78;101598.16;5048597;28;20555;-42
2022/03/26 09:58:18;;;;;;;3.33;2.80;;;;;;;18.36;38.74;101591.22;5048443;28;20029;-42
2022/03/26 10:00:44;;;;;;;3.30;2.75;;;;;;;18.36;38.82;101596.50;5048403;28;20036;-45
2022/03/26 10:03:10;;;;;;;3.25;2.72;;;;;;;18.36;38.82;101596.50;5048507;28;20032;-42
2022/03/26 10:05:35;;;;;;;3.25;2.92;;;;;;;18.35;38.99;101595.69;5046744;28;20036;-43
2022/03/26 10:08:20;;;;;;;2.15;1.95;;;;;;;18.33;38.91;101591.56;5048580;28;20025;-42
2022/03/26 10:10:47;;;;;;;3.95;3.20;;;;;;;18.35;38.85;101587.78;5048622;28;20161;-43
2022/03/26 10:13:32;;;;;;;2.95;2.42;;;;;;;18.35;38.80;101586.94;5047872;28;20726;-43
2022/03/26 10:16:10;;;;;;;2.70;2.50;;;;;;;18.33;38.81;101594.22;5048501;28;20079;-41
2022/03/26 10:18:40;;;;;;;3.05;2.58;;;;;;;18.34;38.71;101590.56;5048037;28;20060;-43
2022/03/26 10:21:13;;;;;;;3.47;2.65;;;;;;;18.34;38.82;101596.69;5048138;28;20391;-39
2022/03/26 10:23:42;;;;;;;4.40;2.83;;;;;;;18.36;38.87;101583.31;5048222;28;20039;-40
2022/03/26 10:26:14;;;;;;;2.63;2.10;;;;;;;18.35;38.75;101597.50;5046276;28;20079;-40
2022/03/26 10:28:41;;;;;;;2.47;2.28;;;;;;;18.36;38.90;101588.59;5047689;28;20036;-43
2022/03/26 10:34:19;;;;;;;3.67;2.70;;;;;;;18.35;38.84;101579.03;5048316;28;20126;-40
2022/03/26 10:36:58;;;;;;;3.88;2.90;;;;;;;18.35;38.85;101573.75;5046342;28;20032;-42
2022/03/26 10:39:26;;;;;;;3.97;2.47;;;;;;;18.34;38.93;101570.28;5047889;28;20124;-45
2022/03/26 10:41:53;;;;;;;2.58;2.17;;;;;;;18.35;38.86;101571.94;5047761;28;20033;-44
2022/03/26 10:44:23;;;;;;;3.25;2.05;;;;;;;18.33;38.89;101573.94;5047682;28;20033;-41
2022/03/26 10:46:53;;;;;;;3.45;2.63;;;;;;;18.34;38.98;101569.47;5047644;28;20045;-44
2022/03/26 10:49:32;;;;;;;2.63;2.25;;;;;;;18.33;39.07;101573.09;5047718;28;20020;-45
2022/03/26 10:52:14;;;;;;;2.38;2.00;;;;;;;18.33;38.96;101567.81;5045647;28;20538;-43
2022/03/26 10:54:40;;;;;;;3.35;2.25;;;;;;;18.33;38.99;101567.81;5047374;28;20116;-41
2022/03/26 10:57:06;;;;;;;2.20;2.00;;;;;;;18.34;39.07;101572.13;5047318;28;20445;-40
2022/03/26 10:59:32;;;;;;;2.95;2.30;;;;;;;18.34;39.04;101569.47;5047328;28;20021;-42
2022/03/26 11:01:58;;;;;;;3.45;2.78;;;;;;;18.34;39.11;101566.84;5047406;28;20488;-42
2022/03/26 11:04:28;;;;;;;2.40;2.20;;;;;;;18.32;39.04;101564.38;5047132;28;20492;-44
2022/03/26 11:06:55;;;;;;;3.65;2.70;;;;;;;18.33;39.01;101566.00;5047110;28;20036;-42
2022/03/26 11:09:21;;;;;;;2.50;2.30;;;;;;;18.32;39.11;101559.09;5047195;28;20033;-40
2022/03/26 11:11:50;;;;;;;2.75;2.33;;;;;;;18.33;39.10;101560.75;5046252;28;20127;-44
2022/03/26 11:14:40;;;;;;;2.55;2.35;;;;;;;18.30;39.09;101554.97;5046951;28;20048;-40
2022/03/26 11:17:06;;;;;;;3.33;2.25;;;;;;;18.32;39.05;101561.72;5046715;28;20083;-45
2022/03/26 11:19:40;;;;;;;4.40;2.22;;;;;;;18.32;39.05;101550.34;5047182;28;20578;-44
2022/03/26 11:22:29;;;;;;;2.38;2.10;;;;;;;18.28;39.08;101547.22;5047122;28;20486;-42
2022/03/26 11:25:19;;;;;;;2.38;2.17;;;;;;;18.30;39.11;101541.78;5047217;28;20029;-39
2022/03/26 11:28:15;;;;;;;2.83;2.20;;;;;;;18.30;39.14;101539.16;5047346;28;20029;-40